Time;durP1;ratioP1;P1;durP2;ratioP2;P2;SDS_P1;SDS_P2;PMS_P1;PMS_P2;Temp;Humidity;BMP_temperature;BMP_pressure;BME280_temperature;BME280_humidity;BME280_pressure;Samples;Min_cycle;Max_cycle;Signal;HPM_P1;HPM_P2
2023/09/19 00:00:20;;;;;;;1.50;1.10;;;19.30;99.90;;;;;;4993463;28;20476;-70
2023/09/19 00:02:59;;;;;;;1.63;1.10;;;19.30;99.90;;;;;;4993174;28;20424;-71
2023/09/19 00:05:27;;;;;;;1.10;0.80;;;19.30;99.90;;;;;;4993451;28;20416;-70
2023/09/19 00:07:54;;;;;;;3.00;0.90;;;19.20;99.90;;;;;;4993110;28;20860;-69
2023/09/19 00:10:24;;;;;;;1.47;1.10;;;19.20;99.90;;;;;;4993241;28;20423;-70
2023/09/19 00:13:00;;;;;;;2.60;0.93;;;19.20;99.90;;;;;;4992882;28;20427;-70
2023/09/19 00:15:28;;;;;;;2.23;1.30;;;19.20;99.90;;;;;;4993345;28;20491;-70
2023/09/19 00:17:55;;;;;;;1.90;1.07;;;19.10;99.90;;;;;;4992929;28;20410;-70
2023/09/19 00:20:22;;;;;;;2.80;1.10;;;19.10;99.90;;;;;;4992995;28;20452;-70
2023/09/19 00:22:51;;;;;;;1.10;1.00;;;19.10;99.90;;;;;;4993376;28;20435;-71
2023/09/19 00:25:18;;;;;;;1.60;1.30;;;19.20;99.90;;;;;;4993254;28;20408;-70
2023/09/19 00:27:44;;;;;;;1.20;0.80;;;19.10;99.90;;;;;;4993488;28;20756;-71
2023/09/19 00:30:21;;;;;;;3.80;1.20;;;19.10;99.90;;;;;;4993105;28;20454;-71
2023/09/19 00:32:48;;;;;;;3.00;0.90;;;19.10;99.90;;;;;;4993041;28;20447;-70
2023/09/19 00:35:15;;;;;;;1.63;1.07;;;18.90;99.90;;;;;;4993293;28;20463;-71
2023/09/19 00:37:41;;;;;;;2.30;1.23;;;18.80;99.90;;;;;;4996663;28;20771;-70
2023/09/19 00:40:15;;;;;;;1.83;0.90;;;18.80;99.90;;;;;;4995878;28;20462;-70
2023/09/19 00:42:41;;;;;;;1.80;1.30;;;18.90;99.90;;;;;;4996317;28;20458;-70
2023/09/19 00:45:11;;;;;;;0.90;0.70;;;18.90;99.90;;;;;;4996564;28;20450;-70
2023/09/19 00:47:48;;;;;;;1.20;1.00;;;18.90;99.90;;;;;;4996202;28;20443;-71
2023/09/19 00:50:17;;;;;;;2.40;1.20;;;19.00;99.90;;;;;;4996540;28;20388;-71
2023/09/19 00:52:43;;;;;;;1.77;1.17;;;19.00;99.90;;;;;;4996174;28;20423;-70
2023/09/19 00:55:10;;;;;;;3.33;1.23;;;19.00;99.90;;;;;;4996446;28;20422;-71
2023/09/19 00:57:38;;;;;;;2.43;1.20;;;19.10;99.90;;;;;;4996580;28;20813;-70
2023/09/19 01:00:06;;;;;;;1.87;0.90;;;19.10;99.90;;;;;;4996279;28;20464;-71
2023/09/19 01:02:32;;;;;;;2.80;1.03;;;18.90;99.90;;;;;;4995878;28;20482;-71
2023/09/19 01:05:00;;;;;;;2.40;0.97;;;18.90;99.90;;;;;;4995654;28;20416;-70
2023/09/19 01:07:33;;;;;;;1.90;0.93;;;18.90;99.90;;;;;;4995777;28;20773;-70
2023/09/19 01:10:00;;;;;;;3.90;1.17;;;18.80;99.90;;;;;;4995782;28;20388;-69
2023/09/19 01:12:50;;;;;;;1.40;0.90;;;18.80;99.90;;;;;;4995778;28;20464;-70
2023/09/19 01:15:30;;;;;;;2.70;1.10;;;18.90;99.90;;;;;;4976371;28;20808;-70
2023/09/19 01:18:16;;;;;;;1.40;0.90;;;18.90;99.90;;;;;;4976874;28;20392;-71
2023/09/19 01:20:55;;;;;;;1.23;1.00;;;19.00;99.90;;;;;;4976928;28;20456;-70
2023/09/19 01:23:57;;;;;;;2.20;1.00;;;19.00;99.90;;;;;;4980895;28;20460;-69
2023/09/19 01:26:43;;;;;;;1.63;0.97;;;19.10;99.90;;;;;;4995698;28;20925;-70
2023/09/19 01:29:39;;;;;;;2.70;1.00;;;18.90;99.90;;;;;;4995690;28;20388;-70
2023/09/19 01:32:06;;;;;;;1.33;0.97;;;18.90;99.90;;;;;;4995982;28;20459;-71
2023/09/19 01:34:52;;;;;;;1.30;1.17;;;19.00;99.90;;;;;;4995106;28;20776;-70
2023/09/19 01:37:25;;;;;;;1.47;0.90;;;19.00;99.90;;;;;;4995743;28;20407;-68
2023/09/19 01:40:11;;;;;;;1.83;0.97;;;19.00;99.90;;;;;;4995726;28;20443;-70
2023/09/19 01:42:50;;;;;;;1.63;1.00;;;19.00;99.90;;;;;;4995727;28;20488;-70
2023/09/19 01:45:33;;;;;;;1.20;0.90;;;19.10;99.90;;;;;;4995891;28;20383;-70
2023/09/19 01:48:13;;;;;;;1.30;1.00;;;19.00;99.90;;;;;;4994942;28;20388;-70
2023/09/19 01:50:59;;;;;;;2.50;1.10;;;18.70;99.90;;;;;;4995646;28;20766;-70
2023/09/19 01:53:30;;;;;;;3.30;0.97;;;18.70;99.90;;;;;;4995710;28;20423;-70
2023/09/19 01:55:57;;;;;;;1.13;0.80;;;18.80;99.90;;;;;;4995489;28;20819;-70
2023/09/19 01:58:34;;;;;;;1.33;1.00;;;18.90;99.90;;;;;;4995321;28;20414;-70
2023/09/19 02:01:01;;;;;;;1.53;1.00;;;18.90;99.90;;;;;;4995059;28;20451;-71
2023/09/19 02:03:28;;;;;;;1.30;0.97;;;18.80;99.90;;;;;;4995337;28;20518;-70
2023/09/19 02:05:54;;;;;;;1.67;0.80;;;18.70;99.90;;;;;;4995118;28;20790;-70
2023/09/19 02:08:25;;;;;;;1.77;1.10;;;18.90;99.90;;;;;;4995414;28;20437;-70
2023/09/19 02:10:51;;;;;;;1.00;0.70;;;19.00;99.90;;;;;;4995482;28;20396;-70
2023/09/19 02:13:20;;;;;;;2.10;0.90;;;18.80;99.90;;;;;;4994725;28;20531;-72
2023/09/19 02:15:46;;;;;;;1.23;0.90;;;18.70;99.90;;;;;;4995227;28;20173;-70
2023/09/19 02:18:12;;;;;;;1.30;0.83;;;18.70;99.90;;;;;;4995861;28;20466;-72
2023/09/19 02:20:39;;;;;;;1.10;0.70;;;18.70;99.90;;;;;;4995533;28;20193;-70
2023/09/19 02:23:05;;;;;;;1.13;0.80;;;18.80;99.90;;;;;;4995049;28;20423;-71
2023/09/19 02:25:31;;;;;;;2.60;1.00;;;18.90;99.90;;;;;;4995268;28;20491;-70
2023/09/19 02:27:58;;;;;;;1.50;0.87;;;18.80;99.90;;;;;;4994644;28;20423;-70
2023/09/19 02:30:27;;;;;;;1.00;0.90;;;18.80;99.90;;;;;;4994670;28;20465;-70
2023/09/19 02:32:53;;;;;;;1.40;1.00;;;18.80;99.90;;;;;;4994159;28;20795;-70
2023/09/19 02:35:22;;;;;;;6.40;1.00;;;18.70;99.90;;;;;;4994281;28;20415;-68
2023/09/19 02:37:48;;;;;;;1.87;0.90;;;18.80;99.90;;;;;;4994519;28;20644;-69
2023/09/19 02:40:20;;;;;;;1.63;1.00;;;18.80;99.90;;;;;;4994017;28;20453;-70
2023/09/19 02:42:49;;;;;;;2.10;1.07;;;18.90;99.90;;;;;;4994153;28;20450;-70
2023/09/19 02:45:18;;;;;;;1.60;1.00;;;18.90;99.90;;;;;;4994262;28;20412;-70
2023/09/19 02:47:45;;;;;;;1.27;0.90;;;18.90;99.90;;;;;;4994284;28;20503;-70
2023/09/19 02:50:11;;;;;;;1.10;0.93;;;18.80;99.90;;;;;;4993911;28;20419;-70
2023/09/19 02:52:37;;;;;;;1.67;1.20;;;18.80;99.90;;;;;;4994360;28;20477;-70
2023/09/19 02:55:04;;;;;;;1.10;0.93;;;18.70;99.90;;;;;;4994066;28;20507;-70
2023/09/19 02:57:33;;;;;;;1.63;0.90;;;18.80;99.90;;;;;;4994109;28;20181;-70
2023/09/19 03:00:00;;;;;;;2.50;1.23;;;18.80;99.90;;;;;;4994226;28;20454;-71
2023/09/19 03:02:27;;;;;;;1.67;1.30;;;18.70;99.90;;;;;;4993714;28;21010;-71
2023/09/19 03:04:53;;;;;;;2.53;0.93;;;18.70;99.90;;;;;;4993880;28;20400;-70
2023/09/19 03:07:19;;;;;;;1.67;0.90;;;18.70;99.90;;;;;;4993481;28;20945;-71
2023/09/19 03:09:45;;;;;;;1.77;1.37;;;18.90;99.90;;;;;;4994586;28;20404;-71
2023/09/19 03:12:11;;;;;;;2.27;1.23;;;19.00;99.90;;;;;;4993983;28;20192;-70
2023/09/19 03:14:36;;;;;;;1.87;1.10;;;19.10;99.90;;;;;;4992770;28;20173;-70
2023/09/19 03:17:05;;;;;;;1.50;1.00;;;18.90;99.90;;;;;;4993974;28;20410;-70
2023/09/19 03:19:33;;;;;;;1.87;1.30;;;19.00;99.90;;;;;;4994283;28;20643;-70
2023/09/19 03:21:59;;;;;;;1.10;0.83;;;19.00;99.90;;;;;;4994079;28;20543;-71
2023/09/19 03:24:24;;;;;;;1.57;1.00;;;18.90;99.90;;;;;;4993632;28;20460;-71
2023/09/19 03:26:50;;;;;;;1.50;0.90;;;19.00;99.90;;;;;;4993172;28;20164;-70
2023/09/19 03:29:17;;;;;;;1.33;1.00;;;19.00;99.90;;;;;;4993596;28;20264;-71
2023/09/19 03:31:42;;;;;;;1.70;0.80;;;19.10;99.90;;;;;;4993632;28;20977;-71
2023/09/19 03:34:08;;;;;;;1.50;1.10;;;19.10;99.90;;;;;;4993536;28;20514;-71
2023/09/19 03:36:34;;;;;;;1.87;1.00;;;19.10;99.90;;;;;;4993516;28;20180;-71
2023/09/19 03:39:00;;;;;;;2.17;1.20;;;19.10;99.90;;;;;;4992945;28;20418;-70
2023/09/19 03:41:26;;;;;;;1.23;0.97;;;19.10;99.90;;;;;;4994024;28;20192;-71
2023/09/19 03:43:51;;;;;;;1.87;0.97;;;19.10;99.90;;;;;;4993647;28;20204;-70
2023/09/19 03:46:17;;;;;;;1.53;1.23;;;18.90;99.90;;;;;;4993352;28;20171;-70
2023/09/19 03:48:43;;;;;;;2.00;1.10;;;18.90;99.90;;;;;;4992108;28;20778;-71
2023/09/19 03:51:08;;;;;;;1.90;1.10;;;18.90;99.90;;;;;;4993215;28;20320;-70
2023/09/19 03:53:34;;;;;;;1.40;1.20;;;19.00;99.90;;;;;;4993086;28;20204;-70
2023/09/19 03:56:00;;;;;;;1.70;1.10;;;19.00;99.90;;;;;;4993765;28;20176;-70
2023/09/19 03:58:25;;;;;;;1.70;1.30;;;18.90;99.90;;;;;;4992381;28;20180;-70
2023/09/19 04:00:55;;;;;;;1.00;0.90;;;18.90;99.90;;;;;;4993376;28;20567;-71
2023/09/19 04:03:21;;;;;;;2.83;1.10;;;18.90;99.90;;;;;;4993306;28;20267;-70
2023/09/19 04:05:47;;;;;;;2.50;1.10;;;18.80;99.90;;;;;;4993136;28;20507;-71
2023/09/19 04:08:13;;;;;;;3.53;1.20;;;18.70;99.90;;;;;;4993076;28;20247;-69
2023/09/19 04:10:41;;;;;;;2.00;1.47;;;18.60;99.90;;;;;;4994213;28;20410;-70
2023/09/19 04:13:07;;;;;;;1.57;1.27;;;18.80;99.90;;;;;;4997178;28;20436;-69
2023/09/19 04:15:33;;;;;;;3.70;1.43;;;18.90;99.90;;;;;;4996951;28;20400;-71
2023/09/19 04:17:59;;;;;;;1.60;1.50;;;18.80;99.90;;;;;;4996943;28;20176;-70
2023/09/19 04:20:25;;;;;;;3.23;1.40;;;18.80;99.90;;;;;;4996985;28;20215;-70
2023/09/19 04:22:51;;;;;;;2.20;1.40;;;18.60;99.90;;;;;;4997003;28;20833;-71
2023/09/19 04:25:18;;;;;;;1.20;1.00;;;18.70;99.90;;;;;;4996884;28;20768;-71
2023/09/19 04:27:44;;;;;;;2.80;1.40;;;18.80;99.90;;;;;;4996786;28;20910;-71
2023/09/19 04:30:11;;;;;;;4.53;1.63;;;18.80;99.90;;;;;;4995448;28;20453;-70
2023/09/19 04:32:41;;;;;;;2.27;1.20;;;18.90;99.90;;;;;;4996726;28;20241;-70
2023/09/19 04:35:10;;;;;;;3.00;1.30;;;18.70;99.90;;;;;;4996809;28;20497;-73
2023/09/19 04:37:38;;;;;;;1.67;1.10;;;18.80;99.90;;;;;;4996610;28;20414;-69
2023/09/19 04:40:06;;;;;;;1.97;1.33;;;18.90;99.90;;;;;;4997100;28;20566;-69
2023/09/19 04:42:31;;;;;;;3.00;1.40;;;18.90;99.90;;;;;;5011196;23;20475;-71
2023/09/19 04:44:59;;;;;;;1.27;1.07;;;18.90;99.90;;;;;;5011222;28;20462;-70
2023/09/19 04:47:25;;;;;;;2.53;1.43;;;18.90;99.90;;;;;;5016749;28;20172;-71
2023/09/19 04:49:50;;;;;;;2.50;1.30;;;18.80;99.90;;;;;;5016031;28;20445;-71
2023/09/19 04:52:16;;;;;;;1.60;1.30;;;18.80;99.90;;;;;;4996282;28;20168;-72
2023/09/19 04:54:41;;;;;;;2.70;1.30;;;18.80;99.90;;;;;;5009086;28;20674;-71
2023/09/19 04:57:07;;;;;;;1.67;1.27;;;18.90;99.90;;;;;;5016108;28;20247;-71
2023/09/19 04:59:32;;;;;;;2.80;1.10;;;19.00;99.90;;;;;;5015938;28;20697;-71
2023/09/19 05:01:58;;;;;;;2.67;1.10;;;18.90;99.90;;;;;;5016375;28;20172;-71
2023/09/19 05:04:24;;;;;;;3.50;1.20;;;19.00;99.90;;;;;;5004160;28;20279;-71
2023/09/19 05:06:50;;;;;;;1.60;1.20;;;19.00;99.90;;;;;;4995340;28;20173;-71
2023/09/19 05:09:19;;;;;;;2.73;1.23;;;18.90;99.90;;;;;;4996697;28;20161;-71
2023/09/19 05:11:45;;;;;;;2.50;1.60;;;18.50;99.90;;;;;;4996538;28;21005;-71
2023/09/19 05:14:11;;;;;;;2.10;1.23;;;18.50;99.90;;;;;;5004503;28;20455;-72
2023/09/19 05:16:37;;;;;;;1.57;1.23;;;18.70;99.90;;;;;;5015927;28;20222;-70
2023/09/19 05:19:02;;;;;;;2.53;1.27;;;18.80;99.90;;;;;;5015949;28;20411;-71
2023/09/19 05:21:28;;;;;;;2.20;1.50;;;18.90;99.90;;;;;;5010892;28;20604;-71
2023/09/19 05:23:54;;;;;;;2.40;1.70;;;18.80;99.90;;;;;;5009125;28;20181;-71
2023/09/19 05:26:20;;;;;;;1.20;1.10;;;18.80;99.90;;;;;;4996279;28;20836;-71
2023/09/19 05:28:47;;;;;;;4.40;1.30;;;18.70;99.90;;;;;;4996097;28;20428;-71
2023/09/19 05:31:14;;;;;;;1.70;1.27;;;18.60;99.90;;;;;;4996477;28;20775;-71
2023/09/19 05:33:39;;;;;;;1.83;1.47;;;18.50;99.90;;;;;;4999613;28;20506;-70
2023/09/19 05:36:05;;;;;;;4.27;1.20;;;18.50;99.90;;;;;;5015457;28;20490;-70
2023/09/19 05:38:32;;;;;;;1.10;1.00;;;18.60;99.90;;;;;;5015458;28;20168;-70
2023/09/19 05:40:58;;;;;;;4.17;1.30;;;18.60;99.90;;;;;;5015374;28;20654;-69
2023/09/19 05:43:23;;;;;;;1.43;1.33;;;18.70;99.90;;;;;;5014191;28;20449;-70
2023/09/19 05:45:52;;;;;;;2.07;1.40;;;18.50;99.90;;;;;;4995897;28;20161;-70
2023/09/19 05:48:17;;;;;;;3.13;1.70;;;18.30;99.90;;;;;;4995877;28;20400;-70
2023/09/19 05:50:46;;;;;;;1.80;1.40;;;18.20;99.90;;;;;;4996320;28;20414;-71
2023/09/19 05:53:14;;;;;;;2.80;1.87;;;18.30;99.90;;;;;;4995641;28;20192;-70
2023/09/19 05:55:40;;;;;;;3.03;1.60;;;18.00;99.90;;;;;;4976419;28;20966;-71
2023/09/19 05:58:06;;;;;;;3.63;1.90;;;17.70;99.90;;;;;;4976230;28;20896;-71
2023/09/19 06:00:32;;;;;;;2.03;1.20;;;17.60;99.90;;;;;;4981003;28;20464;-71
2023/09/19 06:02:59;;;;;;;3.47;1.43;;;17.50;99.90;;;;;;4995647;28;20192;-70
2023/09/19 06:05:27;;;;;;;2.57;1.70;;;17.60;99.90;;;;;;5013294;28;20188;-70
2023/09/19 06:07:53;;;;;;;1.77;1.40;;;17.50;99.90;;;;;;5013825;28;20842;-70
2023/09/19 06:10:23;;;;;;;1.70;1.23;;;17.60;99.90;;;;;;5013704;28;20423;-70
2023/09/19 06:12:49;;;;;;;1.30;1.20;;;17.70;99.90;;;;;;5016198;28;20854;-71
2023/09/19 06:15:18;;;;;;;2.20;1.70;;;17.80;99.90;;;;;;5000118;28;20619;-71
2023/09/19 06:17:48;;;;;;;1.90;1.53;;;18.00;99.90;;;;;;4994973;28;20914;-72
2023/09/19 06:20:14;;;;;;;1.83;1.60;;;18.20;99.90;;;;;;4995139;28;20455;-71
2023/09/19 06:22:45;;;;;;;2.07;1.43;;;18.20;99.90;;;;;;4995029;28;20470;-71
2023/09/19 06:25:12;;;;;;;4.43;1.87;;;18.00;99.90;;;;;;5010158;28;20798;-71
2023/09/19 06:27:42;;;;;;;3.03;1.40;;;18.20;99.90;;;;;;5014709;28;20772;-71
2023/09/19 06:30:09;;;;;;;3.00;1.83;;;18.00;99.90;;;;;;5014761;28;20411;-72
2023/09/19 06:32:35;;;;;;;3.53;1.90;;;18.20;99.90;;;;;;5014604;28;20403;-71
2023/09/19 06:35:00;;;;;;;3.40;1.70;;;18.20;99.90;;;;;;5000555;28;20499;-71
2023/09/19 06:37:29;;;;;;;7.10;6.50;;;18.30;99.90;;;;;;4994887;28;20446;-70
2023/09/19 06:39:56;;;;;;;34.80;30.33;;;18.10;99.90;;;;;;4994442;28;20196;-72
2023/09/19 06:42:23;;;;;;;6.47;2.90;;;18.20;99.90;;;;;;4994445;28;20824;-69
2023/09/19 06:44:49;;;;;;;5.10;1.97;;;18.40;99.90;;;;;;5006378;28;20442;-71
2023/09/19 06:47:15;;;;;;;2.50;1.50;;;18.20;99.90;;;;;;5014456;28;20465;-71
2023/09/19 06:49:43;;;;;;;2.20;1.93;;;18.20;99.90;;;;;;4996310;28;20411;-72
2023/09/19 06:52:09;;;;;;;2.00;1.40;;;18.50;99.90;;;;;;4994764;28;20431;-71
2023/09/19 06:54:35;;;;;;;2.73;1.70;;;18.50;99.90;;;;;;5004574;28;20457;-71
2023/09/19 06:57:01;;;;;;;2.43;1.80;;;18.70;99.90;;;;;;5014606;28;20164;-71
2023/09/19 06:59:27;;;;;;;3.53;1.83;;;18.80;99.90;;;;;;5014285;28;20422;-71
2023/09/19 07:01:52;;;;;;;2.07;1.20;;;19.00;99.90;;;;;;5015047;28;20203;-71
2023/09/19 07:04:19;;;;;;;3.30;1.50;;;19.00;99.90;;;;;;5006488;28;20189;-69
2023/09/19 07:06:53;;;;;;;1.53;1.43;;;18.80;99.90;;;;;;4994575;28;20181;-71
2023/09/19 07:09:19;;;;;;;3.00;1.90;;;18.60;99.90;;;;;;4994813;28;20866;-71
2023/09/19 07:11:45;;;;;;;7.10;2.10;;;18.80;99.90;;;;;;4993217;28;20408;-70
2023/09/19 07:14:13;;;;;;;3.37;1.73;;;18.50;99.90;;;;;;4999260;28;20433;-71
2023/09/19 07:16:39;;;;;;;3.47;1.90;;;18.50;99.90;;;;;;5005138;28;20948;-71
2023/09/19 07:19:05;;;;;;;4.30;1.80;;;18.60;99.90;;;;;;5010008;28;20407;-71
2023/09/19 07:21:32;;;;;;;2.70;1.80;;;18.60;99.90;;;;;;5013057;28;20897;-71
2023/09/19 07:24:00;;;;;;;4.37;2.47;;;18.70;99.90;;;;;;5007860;28;20926;-73
2023/09/19 07:26:26;;;;;;;3.20;1.80;;;18.70;99.90;;;;;;4992828;28;20492;-71
2023/09/19 07:28:53;;;;;;;2.73;1.70;;;18.70;99.90;;;;;;4994286;28;20479;-71
2023/09/19 07:31:18;;;;;;;3.60;2.30;;;18.40;99.90;;;;;;4995200;28;20425;-71
2023/09/19 07:33:44;;;;;;;2.40;2.20;;;18.50;99.90;;;;;;5005369;28;20423;-72
2023/09/19 07:36:13;;;;;;;5.63;2.43;;;18.80;99.90;;;;;;4993786;28;20287;-71
2023/09/19 07:38:39;;;;;;;6.90;1.97;;;18.90;99.90;;;;;;4991173;28;20416;-71
2023/09/19 07:41:05;;;;;;;3.40;1.87;;;18.90;99.90;;;;;;5000424;28;20439;-72
2023/09/19 07:43:31;;;;;;;5.70;3.20;;;18.70;99.90;;;;;;5007209;28;20473;-72
2023/09/19 07:45:57;;;;;;;4.07;2.73;;;18.90;99.90;;;;;;4987851;28;20542;-72
2023/09/19 07:48:24;;;;;;;2.50;1.90;;;19.20;99.90;;;;;;4987785;28;20416;-72
2023/09/19 07:50:49;;;;;;;3.77;2.27;;;19.20;99.90;;;;;;4999432;28;20179;-72
2023/09/19 07:53:17;;;;;;;2.53;1.90;;;19.30;99.90;;;;;;5008188;28;20817;-71
2023/09/19 07:55:43;;;;;;;3.83;2.20;;;19.20;99.90;;;;;;4999088;28;20168;-72
2023/09/19 07:58:09;;;;;;;4.20;2.50;;;19.30;99.90;;;;;;5005530;28;20918;-71
2023/09/19 08:00:34;;;;;;;6.80;4.90;;;19.10;99.90;;;;;;5004441;28;20451;-72
2023/09/19 08:03:00;;;;;;;4.77;2.10;;;19.40;99.90;;;;;;4988074;28;20235;-72
2023/09/19 08:05:26;;;;;;;3.07;1.70;;;19.30;99.90;;;;;;5002944;28;20190;-72
2023/09/19 08:07:52;;;;;;;2.00;1.70;;;19.40;99.90;;;;;;4995074;28;20416;-72
2023/09/19 08:10:19;;;;;;;2.57;1.60;;;19.40;99.90;;;;;;4987703;28;20168;-69
2023/09/19 08:12:46;;;;;;;5.10;1.50;;;19.30;99.90;;;;;;5005517;28;20192;-73
2023/09/19 08:15:16;;;;;;;1.87;1.73;;;19.40;99.90;;;;;;4994339;28;20966;-72
2023/09/19 08:17:42;;;;;;;3.10;1.67;;;19.40;99.90;;;;;;4987254;28;20412;-72
2023/09/19 08:20:16;;;;;;;4.30;1.90;;;19.50;99.90;;;;;;4997735;28;20497;-72
2023/09/19 08:22:44;;;;;;;2.30;1.53;;;19.50;99.90;;;;;;4986964;28;20428;-72
2023/09/19 08:25:09;;;;;;;1.70;1.40;;;19.50;99.90;;;;;;5001401;28;20469;-72
2023/09/19 08:27:36;;;;;;;3.47;2.40;;;19.50;99.90;;;;;;4989993;28;20412;-72
2023/09/19 08:30:02;;;;;;;1.90;1.40;;;19.40;99.90;;;;;;5000053;28;20172;-72
2023/09/19 08:32:29;;;;;;;2.50;1.77;;;19.40;99.90;;;;;;5007262;28;20410;-72
2023/09/19 08:34:54;;;;;;;1.83;1.33;;;19.50;99.90;;;;;;4998072;28;20466;-72
2023/09/19 08:37:20;;;;;;;1.40;0.90;;;19.40;99.90;;;;;;5001908;28;20942;-71
2023/09/19 08:39:46;;;;;;;2.50;1.40;;;19.60;99.90;;;;;;4998392;28;20632;-71
2023/09/19 08:42:12;;;;;;;2.00;1.20;;;19.60;99.90;;;;;;5002529;28;20547;-71
2023/09/19 08:44:40;;;;;;;2.00;1.10;;;19.50;99.90;;;;;;4996075;28;20451;-72
2023/09/19 08:47:09;;;;;;;1.93;1.50;;;19.70;99.90;;;;;;4995932;28;20926;-72
2023/09/19 08:49:48;;;;;;;3.27;2.00;;;19.80;99.90;;;;;;5001292;28;20900;-71
2023/09/19 08:52:23;;;;;;;3.13;1.70;;;19.80;99.90;;;;;;4995999;28;20399;-71
2023/09/19 08:54:52;;;;;;;1.63;1.17;;;20.20;99.90;;;;;;4995520;28;20823;-73
2023/09/19 08:57:21;;;;;;;1.73;1.40;;;20.30;99.90;;;;;;5001254;28;20495;-72
2023/09/19 08:59:50;;;;;;;2.10;1.20;;;20.30;99.90;;;;;;5001944;28;20465;-72
2023/09/19 09:02:19;;;;;;;2.17;1.43;;;20.10;99.90;;;;;;5000219;28;20403;-70
2023/09/19 09:04:47;;;;;;;2.83;1.60;;;20.00;99.90;;;;;;5001686;28;21054;-72
2023/09/19 09:07:13;;;;;;;1.73;1.20;;;20.10;99.90;;;;;;5006688;28;20411;-72
2023/09/19 09:09:42;;;;;;;1.60;1.20;;;20.00;99.90;;;;;;4996056;28;20840;-72
2023/09/19 09:12:13;;;;;;;2.90;1.70;;;19.90;99.90;;;;;;5000510;28;20400;-70
2023/09/19 09:14:40;;;;;;;2.10;1.67;;;20.20;99.90;;;;;;4999449;28;20450;-72
2023/09/19 09:17:05;;;;;;;2.73;1.60;;;20.40;99.90;;;;;;5001675;28;20434;-71
2023/09/19 09:19:31;;;;;;;4.70;1.60;;;20.40;99.90;;;;;;5005944;28;20458;-71
2023/09/19 09:22:18;;;;;;;2.03;1.50;;;20.30;99.90;;;;;;5004240;28;20192;-71
2023/09/19 09:25:04;;;;;;;2.33;1.33;;;20.10;99.90;;;;;;4998249;28;20392;-72
2023/09/19 09:27:32;;;;;;;2.27;1.20;;;20.20;99.90;;;;;;4998307;28;20396;-71
2023/09/19 09:29:58;;;;;;;2.60;1.30;;;20.30;99.90;;;;;;4996253;28;20415;-72
2023/09/19 09:32:28;;;;;;;3.70;1.60;;;20.40;99.90;;;;;;4991423;28;20428;-72
2023/09/19 09:34:59;;;;;;;3.50;1.50;;;20.60;99.90;;;;;;4992951;28;20176;-72
2023/09/19 09:37:26;;;;;;;1.70;1.50;;;20.70;99.90;;;;;;4999232;28;20407;-71
2023/09/19 09:40:18;;;;;;;2.10;1.40;;;20.60;99.90;;;;;;5005884;28;20419;-72
2023/09/19 09:42:46;;;;;;;3.00;1.80;;;20.70;99.90;;;;;;4996910;28;20428;-72
2023/09/19 09:45:17;;;;;;;2.17;1.30;;;20.70;99.90;;;;;;4992154;28;20765;-73
2023/09/19 09:48:14;;;;;;;1.93;1.47;;;20.60;99.90;;;;;;5004367;28;20427;-72
2023/09/19 09:53:32;;;;;;;1.77;1.10;;;21.00;99.90;;;;;;4971443;28;20426;-72
2023/09/19 09:56:01;;;;;;;1.83;1.20;;;21.20;99.90;;;;;;4984021;28;20411;-73
2023/09/19 09:58:29;;;;;;;4.60;2.07;;;21.30;99.90;;;;;;5009086;28;20214;-72
2023/09/19 10:01:17;;;;;;;3.03;1.60;;;21.40;99.90;;;;;;5009410;28;20500;-72
2023/09/19 10:03:53;;;;;;;3.80;1.80;;;21.40;99.90;;;;;;5007414;28;20430;-72
2023/09/19 10:06:25;;;;;;;1.60;1.20;;;21.30;99.90;;;;;;5003310;28;20440;-72
2023/09/19 10:11:39;;;;;;;2.60;1.60;;;21.40;99.90;;;;;;4989141;28;20411;-72
2023/09/19 10:14:08;;;;;;;2.20;1.50;;;21.40;99.90;;;;;;4993468;28;20463;-72
2023/09/19 10:16:35;;;;;;;1.60;1.40;;;21.40;99.90;;;;;;4994159;28;20446;-72
2023/09/19 10:19:06;;;;;;;1.70;1.40;;;22.00;99.90;;;;;;4995824;28;20414;-71
2023/09/19 10:21:33;;;;;;;2.00;1.57;;;22.30;99.90;;;;;;4995310;28;20859;-72
2023/09/19 10:24:02;;;;;;;2.50;1.63;;;22.40;99.90;;;;;;4998081;28;20534;-72
2023/09/19 10:26:30;;;;;;;2.13;1.30;;;22.30;99.90;;;;;;5006211;28;20894;-71
2023/09/19 10:29:03;;;;;;;2.40;1.47;;;22.10;99.90;;;;;;4995230;28;20977;-71
2023/09/19 10:31:33;;;;;;;2.60;1.40;;;21.90;99.90;;;;;;4995833;28;20504;-70
2023/09/19 10:34:03;;;;;;;2.17;1.43;;;21.90;99.90;;;;;;4995367;28;20791;-73
2023/09/19 10:36:35;;;;;;;3.00;2.03;;;22.00;99.90;;;;;;4995358;28;20419;-73
2023/09/19 10:39:06;;;;;;;3.63;1.60;;;21.80;99.90;;;;;;4995205;28;20479;-71
2023/09/19 10:41:34;;;;;;;2.37;1.63;;;21.50;99.90;;;;;;4994521;28;20964;-72
2023/09/19 10:44:04;;;;;;;2.60;1.33;;;21.60;99.90;;;;;;5028918;23;20482;-71
2023/09/19 10:46:32;;;;;;;2.63;1.90;;;22.20;99.90;;;;;;5013302;28;20399;-70
2023/09/19 10:49:02;;;;;;;1.67;1.20;;;22.60;99.90;;;;;;5013288;28;20529;-71
2023/09/19 10:51:39;;;;;;;3.27;1.40;;;22.70;99.90;;;;;;5013140;28;20851;-69
2023/09/19 10:54:15;;;;;;;4.87;1.97;;;22.70;99.90;;;;;;5013325;28;20944;-69
2023/09/19 10:56:51;;;;;;;2.63;1.57;;;22.60;99.90;;;;;;5012999;28;20399;-70
2023/09/19 10:59:18;;;;;;;2.80;1.47;;;22.50;99.90;;;;;;5013677;28;20379;-70
2023/09/19 11:01:47;;;;;;;2.40;1.50;;;22.40;99.90;;;;;;5013391;28;20489;-71
2023/09/19 11:04:27;;;;;;;2.20;1.30;;;22.50;99.90;;;;;;5012482;28;20451;-70
2023/09/19 11:07:11;;;;;;;2.70;1.60;;;23.50;99.90;;;;;;5013246;28;20395;-70
2023/09/19 11:09:46;;;;;;;2.30;1.50;;;24.30;99.30;;;;;;5010751;28;20403;-71
2023/09/19 11:12:36;;;;;;;1.40;1.00;;;24.10;98.50;;;;;;5013117;28;20427;-70
2023/09/19 11:15:07;;;;;;;1.70;1.27;;;24.10;99.50;;;;;;4993089;28;20420;-71
2023/09/19 11:17:37;;;;;;;2.30;1.50;;;23.90;99.40;;;;;;5004613;28;20403;-70
2023/09/19 11:22:52;;;;;;;2.23;1.60;;;24.80;97.90;;;;;;5012519;28;20378;-70
2023/09/19 11:25:47;;;;;;;1.33;0.97;;;25.40;96.70;;;;;;5012677;28;20430;-70
2023/09/19 11:28:16;;;;;;;2.27;1.47;;;25.10;96.20;;;;;;5012511;28;20897;-69
2023/09/19 11:30:44;;;;;;;3.67;1.67;;;26.60;94.90;;;;;;5012821;28;20417;-70
2023/09/19 11:33:46;;;;;;;2.10;1.60;;;25.90;94.20;;;;;;5012700;28;20774;-70
2023/09/19 11:36:15;;;;;;;2.63;1.50;;;25.00;95.70;;;;;;5012904;28;20540;-70
2023/09/19 11:38:53;;;;;;;2.13;1.20;;;23.90;97.00;;;;;;5013080;28;20414;-70
2023/09/19 11:41:29;;;;;;;1.33;1.00;;;23.80;96.50;;;;;;5012401;28;20438;-70
2023/09/19 11:44:03;;;;;;;1.93;1.60;;;24.90;94.30;;;;;;5012678;28;20948;-69
2023/09/19 11:46:51;;;;;;;3.03;1.23;;;24.80;94.70;;;;;;5013420;28;20788;-70
2023/09/19 11:49:29;;;;;;;2.70;1.40;;;24.90;95.90;;;;;;5007063;28;20994;-70
2023/09/19 11:51:56;;;;;;;1.87;1.20;;;24.80;93.70;;;;;;5007643;28;20423;-71
2023/09/19 11:54:22;;;;;;;1.33;1.10;;;26.00;92.50;;;;;;5007562;28;21728;-71
2023/09/19 11:56:53;;;;;;;1.80;0.97;;;27.30;90.70;;;;;;5007299;28;20777;-71
2023/09/19 11:59:28;;;;;;;1.80;1.03;;;27.70;90.40;;;;;;5006533;28;20786;-70
2023/09/19 12:01:58;;;;;;;1.40;1.10;;;28.00;86.60;;;;;;5007200;28;20434;-71
2023/09/19 12:04:45;;;;;;;2.70;1.30;;;27.90;85.80;;;;;;5007079;28;20844;-69
2023/09/19 12:07:15;;;;;;;3.57;1.37;;;27.50;88.00;;;;;;5006470;28;20423;-71
2023/09/19 12:09:47;;;;;;;1.90;1.53;;;27.30;90.30;;;;;;5006811;28;20399;-71
2023/09/19 12:12:26;;;;;;;2.20;1.50;;;28.60;86.60;;;;;;5006953;28;20910;-69
2023/09/19 12:14:53;;;;;;;3.83;1.77;;;29.30;85.10;;;;;;5006400;28;20427;-71
2023/09/19 12:17:22;;;;;;;4.10;1.70;;;28.90;81.60;;;;;;5007193;28;20407;-69
2023/09/19 12:19:56;;;;;;;2.50;1.90;;;28.90;81.10;;;;;;5005308;28;20451;-71
2023/09/19 12:22:21;;;;;;;2.50;1.27;;;28.90;79.70;;;;;;5006840;28;20418;-71
2023/09/19 12:24:48;;;;;;;2.10;1.10;;;29.30;79.40;;;;;;5007414;28;20807;-71
2023/09/19 12:27:14;;;;;;;1.97;1.20;;;29.50;79.50;;;;;;5007298;28;20255;-71
2023/09/19 12:29:44;;;;;;;1.83;1.10;;;30.40;75.60;;;;;;5006783;28;20407;-71
2023/09/19 12:32:10;;;;;;;1.40;1.00;;;30.60;72.00;;;;;;5008192;28;20929;-71
2023/09/19 12:34:42;;;;;;;1.87;1.40;;;30.20;73.10;;;;;;5010676;28;20445;-69
2023/09/19 12:37:12;;;;;;;1.60;1.37;;;30.90;73.90;;;;;;5009964;28;20916;-71
2023/09/19 12:39:52;;;;;;;1.57;1.23;;;31.60;72.90;;;;;;5009793;28;20767;-70
2023/09/19 12:42:22;;;;;;;2.17;1.10;;;31.60;69.10;;;;;;5009955;28;20399;-71
2023/09/19 12:44:55;;;;;;;2.00;1.30;;;31.30;70.40;;;;;;5010231;28;20882;-72
2023/09/19 12:47:23;;;;;;;2.10;1.10;;;31.30;69.20;;;;;;5009599;28;20907;-71
2023/09/19 12:50:25;;;;;;;2.43;1.20;;;31.20;69.20;;;;;;5010064;28;20394;-72
2023/09/19 12:52:52;;;;;;;2.43;1.20;;;30.50;71.30;;;;;;5010237;28;20485;-71
2023/09/19 12:55:33;;;;;;;1.57;1.10;;;29.90;71.60;;;;;;5010077;28;20427;-70
2023/09/19 12:58:15;;;;;;;1.60;1.20;;;29.80;70.80;;;;;;5009992;28;20486;-70
2023/09/19 13:00:44;;;;;;;2.33;1.20;;;28.60;73.70;;;;;;5009694;28;21144;-71
2023/09/19 13:03:28;;;;;;;1.50;1.20;;;27.70;76.90;;;;;;5010056;28;20437;-71
2023/09/19 13:06:02;;;;;;;1.67;1.57;;;28.40;74.30;;;;;;5008634;28;20458;-71
2023/09/19 13:08:38;;;;;;;2.13;1.17;;;29.80;71.80;;;;;;5009339;28;20464;-71